Time;durP1;ratioP1;P1;durP2;ratioP2;P2;SDS_P1;SDS_P2;PMS_P1;PMS_P2;Temp;Humidity;BMP_temperature;BMP_pressure;BME280_temperature;BME280_humidity;BME280_pressure;Samples;Min_cycle;Max_cycle;Signal;HPM_P1;HPM_P2
2023/09/28 00:00:58;;;;;;;13.17;11.77;;;19.10;99.90;;;;;;5031348;28;20752;-65
2023/09/28 00:03:24;;;;;;;13.40;11.37;;;19.10;99.90;;;;;;5036483;28;20273;-66
2023/09/28 00:05:50;;;;;;;13.43;11.73;;;19.10;99.90;;;;;;5037998;28;20277;-67
2023/09/28 00:08:16;;;;;;;15.40;12.63;;;19.10;99.90;;;;;;5037818;28;20198;-68
2023/09/28 00:10:42;;;;;;;16.80;11.67;;;19.00;99.90;;;;;;5037153;28;20530;-67
2023/09/28 00:13:08;;;;;;;12.63;11.43;;;19.00;99.90;;;;;;5037081;28;20246;-67
2023/09/28 00:15:33;;;;;;;13.17;11.67;;;19.00;99.90;;;;;;5033318;28;20260;-67
2023/09/28 00:17:59;;;;;;;13.63;11.90;;;19.00;99.90;;;;;;5039944;28;20237;-66
2023/09/28 00:20:24;;;;;;;12.83;10.87;;;19.00;99.90;;;;;;5037523;28;20717;-68
2023/09/28 00:22:53;;;;;;;16.53;12.40;;;19.00;99.90;;;;;;5040253;28;20695;-66
2023/09/28 00:25:23;;;;;;;13.27;11.63;;;18.90;99.90;;;;;;5037898;28;20430;-66
2023/09/28 00:27:50;;;;;;;12.03;10.87;;;18.90;99.90;;;;;;5036824;28;20205;-66
2023/09/28 00:30:19;;;;;;;13.27;11.80;;;18.90;99.90;;;;;;5034979;28;20918;-66
2023/09/28 00:32:46;;;;;;;13.33;11.93;;;19.00;99.90;;;;;;5034369;28;20679;-69
2023/09/28 00:35:11;;;;;;;13.57;12.20;;;18.90;99.90;;;;;;5035775;28;20225;-67
2023/09/28 00:37:37;;;;;;;14.77;11.93;;;18.90;99.90;;;;;;5029197;28;20202;-68
2023/09/28 00:42:51;;;;;;;13.60;11.83;;;18.90;99.90;;;;;;5034979;28;21109;-67
2023/09/28 00:45:20;;;;;;;14.03;11.43;;;18.90;99.90;;;;;;5032433;28;20991;-66
2023/09/28 00:47:45;;;;;;;12.57;11.30;;;18.90;99.90;;;;;;5040610;28;20203;-67
2023/09/28 00:50:14;;;;;;;13.57;11.47;;;18.90;99.90;;;;;;5040126;28;20224;-66
2023/09/28 00:52:51;;;;;;;12.43;11.13;;;18.90;99.90;;;;;;5036914;28;20280;-67
2023/09/28 00:55:19;;;;;;;18.10;11.73;;;18.90;99.90;;;;;;5039961;28;20534;-66
2023/09/28 00:57:46;;;;;;;13.87;12.47;;;18.90;99.90;;;;;;5035913;28;20205;-66
2023/09/28 01:00:18;;;;;;;13.63;12.33;;;18.80;99.90;;;;;;5039322;28;20198;-70
2023/09/28 01:02:51;;;;;;;13.53;12.07;;;18.80;99.90;;;;;;5038074;28;20273;-68
2023/09/28 01:05:18;;;;;;;14.70;12.10;;;18.70;99.90;;;;;;5035967;28;20224;-65
2023/09/28 01:07:43;;;;;;;12.30;11.23;;;18.70;99.90;;;;;;5039623;28;20206;-64
2023/09/28 01:10:12;;;;;;;13.07;11.73;;;18.70;99.90;;;;;;5038218;28;20217;-63
2023/09/28 01:12:41;;;;;;;14.67;12.50;;;18.70;99.90;;;;;;5040367;28;20957;-67
2023/09/28 01:15:11;;;;;;;13.00;11.70;;;18.70;99.90;;;;;;5043182;28;20293;-60
2023/09/28 01:17:38;;;;;;;13.13;11.57;;;18.70;99.90;;;;;;5041750;28;20201;-64
2023/09/28 01:20:22;;;;;;;13.07;11.13;;;18.70;99.90;;;;;;5033367;28;20262;-72
2023/09/28 01:22:49;;;;;;;13.53;11.53;;;18.70;99.90;;;;;;5033647;28;20241;-64
2023/09/28 01:25:15;;;;;;;12.87;11.53;;;18.60;99.90;;;;;;5038011;28;20280;-65
2023/09/28 01:27:47;;;;;;;11.93;10.67;;;18.60;99.90;;;;;;5035515;28;20229;-68
2023/09/28 01:30:13;;;;;;;13.73;11.27;;;18.60;99.90;;;;;;5038904;28;20199;-69
2023/09/28 01:32:39;;;;;;;14.23;10.90;;;18.60;99.90;;;;;;5038701;28;20198;-69
2023/09/28 01:35:06;;;;;;;12.40;10.70;;;18.60;99.90;;;;;;5036722;28;20222;-64
2023/09/28 01:37:39;;;;;;;13.20;10.73;;;18.60;99.90;;;;;;5035025;28;20256;-64
2023/09/28 01:40:05;;;;;;;11.43;10.20;;;18.50;99.90;;;;;;5039832;28;20272;-64
2023/09/28 01:42:30;;;;;;;14.57;10.37;;;18.40;99.90;;;;;;5033506;28;20187;-64
2023/09/28 01:44:56;;;;;;;10.97;9.47;;;18.40;99.90;;;;;;5036623;28;20472;-64
2023/09/28 01:47:21;;;;;;;11.90;10.63;;;18.50;99.90;;;;;;5033773;28;20284;-64
2023/09/28 01:49:47;;;;;;;12.67;11.40;;;18.40;99.90;;;;;;5036008;28;20238;-64
2023/09/28 01:52:12;;;;;;;13.30;10.53;;;18.40;99.90;;;;;;5037833;28;20205;-64
2023/09/28 01:54:38;;;;;;;15.00;10.50;;;18.40;99.90;;;;;;5040671;28;20747;-64
2023/09/28 01:57:03;;;;;;;11.20;10.10;;;18.30;99.90;;;;;;5040992;28;20263;-63
2023/09/28 01:59:31;;;;;;;11.57;10.37;;;18.30;99.90;;;;;;5036840;28;20287;-65
2023/09/28 02:01:56;;;;;;;11.57;9.97;;;18.30;99.90;;;;;;5034327;28;20710;-65
2023/09/28 02:04:21;;;;;;;11.47;10.07;;;18.20;99.90;;;;;;5033720;28;20206;-65
2023/09/28 02:06:47;;;;;;;13.30;11.33;;;18.10;99.90;;;;;;5042063;28;20238;-64
2023/09/28 02:09:17;;;;;;;11.47;10.20;;;18.20;99.90;;;;;;5033315;28;20205;-63
2023/09/28 02:11:43;;;;;;;10.60;9.50;;;18.20;99.90;;;;;;5030956;28;20200;-64
2023/09/28 02:14:11;;;;;;;10.80;9.70;;;18.20;99.90;;;;;;5027193;28;20321;-65
2023/09/28 02:16:36;;;;;;;13.30;10.90;;;18.10;99.90;;;;;;5038491;28;20231;-64
2023/09/28 02:19:03;;;;;;;10.93;9.83;;;18.10;99.90;;;;;;5041502;28;20206;-63
2023/09/28 02:21:29;;;;;;;11.57;10.47;;;18.10;99.90;;;;;;5036485;28;20204;-64
2023/09/28 02:23:55;;;;;;;11.03;9.87;;;18.20;99.90;;;;;;5039143;28;20278;-64
2023/09/28 02:26:20;;;;;;;15.83;9.87;;;18.10;99.90;;;;;;5036863;28;20570;-64
2023/09/28 02:28:46;;;;;;;13.37;10.23;;;18.20;99.90;;;;;;5035997;28;20202;-65
2023/09/28 02:31:11;;;;;;;11.00;9.90;;;18.20;99.90;;;;;;5034236;28;20685;-65
2023/09/28 02:33:36;;;;;;;12.80;10.30;;;18.10;99.90;;;;;;5032530;28;20206;-64
2023/09/28 02:36:02;;;;;;;11.97;9.17;;;18.00;99.90;;;;;;5036116;28;20204;-63
2023/09/28 02:38:29;;;;;;;13.10;10.47;;;18.00;99.90;;;;;;5035880;28;20745;-64
2023/09/28 02:40:54;;;;;;;16.07;10.27;;;18.00;99.90;;;;;;5038000;28;20197;-63
2023/09/28 02:43:20;;;;;;;12.93;9.73;;;18.00;99.90;;;;;;5043914;28;20904;-64
2023/09/28 02:45:45;;;;;;;16.20;10.50;;;18.00;99.90;;;;;;5034053;28;20252;-66
2023/09/28 02:48:11;;;;;;;12.83;9.57;;;18.00;99.90;;;;;;5038018;28;20283;-66
2023/09/28 02:50:37;;;;;;;11.73;10.37;;;17.90;99.90;;;;;;5037012;28;20287;-66
2023/09/28 02:53:03;;;;;;;10.40;9.40;;;17.90;99.90;;;;;;5034817;28;20286;-66
2023/09/28 02:55:29;;;;;;;9.87;8.97;;;17.90;99.90;;;;;;5037830;28;20311;-65
2023/09/28 02:57:54;;;;;;;13.13;10.37;;;17.80;99.90;;;;;;5034138;28;21109;-62
2023/09/28 03:00:24;;;;;;;14.20;9.70;;;17.70;99.90;;;;;;5039902;28;20206;-63
2023/09/28 03:02:51;;;;;;;17.80;9.90;;;17.60;99.90;;;;;;5032531;28;20196;-63
2023/09/28 03:05:18;;;;;;;10.60;9.50;;;17.70;99.90;;;;;;5033254;28;20198;-63
2023/09/28 03:07:45;;;;;;;11.73;9.83;;;17.70;99.90;;;;;;5037225;28;20253;-63
2023/09/28 03:10:12;;;;;;;10.97;9.80;;;17.70;99.90;;;;;;5037476;28;20647;-63
2023/09/28 03:12:38;;;;;;;13.77;10.80;;;17.70;99.90;;;;;;5031350;28;20281;-63
2023/09/28 03:15:10;;;;;;;10.83;9.60;;;17.80;99.90;;;;;;5032375;28;20311;-63
2023/09/28 03:17:36;;;;;;;11.53;10.37;;;17.80;99.90;;;;;;5033663;28;20201;-63
2023/09/28 03:20:17;;;;;;;13.13;10.00;;;17.70;99.90;;;;;;5031347;28;20286;-63
2023/09/28 03:22:43;;;;;;;13.50;10.53;;;17.80;99.90;;;;;;5033254;28;20198;-67
2023/09/28 03:25:14;;;;;;;12.53;10.20;;;17.80;99.90;;;;;;5035616;28;20229;-64
2023/09/28 03:27:40;;;;;;;10.00;9.10;;;17.70;99.90;;;;;;5034061;28;20198;-68
2023/09/28 03:30:09;;;;;;;14.57;10.87;;;17.70;99.90;;;;;;5034852;28;20208;-67
2023/09/28 03:32:34;;;;;;;11.73;10.13;;;17.70;99.90;;;;;;5039375;28;20306;-64
2023/09/28 03:35:01;;;;;;;11.47;10.27;;;17.70;99.90;;;;;;5031392;28;20347;-62
2023/09/28 03:37:28;;;;;;;10.87;9.80;;;17.70;99.90;;;;;;5039591;28;20205;-62
2023/09/28 03:39:53;;;;;;;13.43;10.33;;;17.60;99.90;;;;;;5034357;28;20571;-63
2023/09/28 03:42:19;;;;;;;15.17;10.53;;;17.50;99.90;;;;;;5035213;28;20271;-63
2023/09/28 03:44:44;;;;;;;12.93;11.17;;;17.40;99.90;;;;;;5028398;28;20214;-63
2023/09/28 03:47:10;;;;;;;12.30;10.23;;;17.30;99.90;;;;;;5031289;28;20274;-62
2023/09/28 03:49:36;;;;;;;12.07;10.23;;;17.20;99.90;;;;;;5031067;28;20315;-63
2023/09/28 03:52:02;;;;;;;14.03;10.40;;;17.30;99.90;;;;;;5031259;28;20214;-63
2023/09/28 03:54:28;;;;;;;14.60;11.10;;;17.20;99.90;;;;;;5038417;28;20220;-64
2023/09/28 03:56:53;;;;;;;11.47;10.33;;;17.20;99.90;;;;;;5037968;28;20204;-64
2023/09/28 03:59:19;;;;;;;15.33;10.87;;;17.20;99.90;;;;;;5031940;28;20205;-63
2023/09/28 04:01:44;;;;;;;11.77;10.50;;;17.20;99.90;;;;;;5032766;28;20263;-64
2023/09/28 04:04:10;;;;;;;12.27;10.73;;;17.20;99.90;;;;;;5032426;28;20193;-64
2023/09/28 04:06:36;;;;;;;12.13;10.93;;;17.10;99.90;;;;;;5031201;28;20196;-64
2023/09/28 04:09:02;;;;;;;12.90;10.50;;;17.10;99.90;;;;;;5038539;28;20625;-64
2023/09/28 04:11:28;;;;;;;13.53;11.57;;;17.10;99.90;;;;;;5032940;28;20219;-65
2023/09/28 04:13:53;;;;;;;12.37;10.70;;;17.20;99.90;;;;;;5036943;28;20229;-65
2023/09/28 04:16:18;;;;;;;12.90;11.30;;;17.20;99.90;;;;;;5033045;28;20215;-65
2023/09/28 04:18:44;;;;;;;12.53;11.10;;;17.30;99.90;;;;;;5037708;28;20697;-64
2023/09/28 04:21:10;;;;;;;11.00;9.97;;;17.10;99.90;;;;;;5036580;28;20586;-66
2023/09/28 04:23:35;;;;;;;11.63;10.60;;;17.10;99.90;;;;;;5037980;28;20215;-64
2023/09/28 04:26:01;;;;;;;12.83;10.83;;;17.10;99.90;;;;;;5034453;28;20368;-64
2023/09/28 04:28:26;;;;;;;13.20;12.00;;;17.10;99.90;;;;;;5032597;28;21107;-65
2023/09/28 04:30:52;;;;;;;16.10;10.63;;;17.10;99.90;;;;;;5037814;28;20244;-63
2023/09/28 04:33:17;;;;;;;13.77;11.07;;;17.20;99.90;;;;;;5031933;28;20200;-62
2023/09/28 04:35:43;;;;;;;12.63;11.20;;;17.10;99.90;;;;;;5033818;28;20218;-63
2023/09/28 04:38:08;;;;;;;13.13;11.27;;;17.20;99.90;;;;;;5036888;28;20335;-62
2023/09/28 04:43:09;;;;;;;15.77;10.70;;;17.20;99.90;;;;;;4801984;26;20233;-65
2023/09/28 04:45:35;;;;;;;12.97;11.57;;;17.20;99.90;;;;;;4982138;28;20235;-67
2023/09/28 04:48:00;;;;;;;13.57;11.77;;;17.20;99.90;;;;;;4987652;28;20206;-66
2023/09/28 04:50:26;;;;;;;12.83;11.30;;;17.10;99.90;;;;;;4997629;28;20293;-64
2023/09/28 04:52:51;;;;;;;13.53;11.63;;;17.00;99.90;;;;;;4997844;28;20208;-65
2023/09/28 04:55:17;;;;;;;14.07;11.90;;;17.00;99.90;;;;;;4995108;28;20643;-63
2023/09/28 04:57:42;;;;;;;16.30;12.10;;;17.00;99.90;;;;;;4992914;28;20279;-63
2023/09/28 05:00:15;;;;;;;17.97;10.87;;;17.00;99.90;;;;;;4994867;28;20203;-63
2023/09/28 05:02:41;;;;;;;15.50;11.67;;;17.00;99.90;;;;;;4972656;28;20598;-63
2023/09/28 05:05:07;;;;;;;17.47;12.10;;;17.10;99.90;;;;;;4999120;28;20680;-63
2023/09/28 05:07:32;;;;;;;14.13;12.83;;;17.00;99.90;;;;;;4991431;28;20215;-63
2023/09/28 05:09:59;;;;;;;13.57;11.93;;;17.10;99.90;;;;;;4992637;28;20227;-65
2023/09/28 05:12:24;;;;;;;15.43;12.63;;;17.00;99.90;;;;;;5001952;28;20190;-67
2023/09/28 05:14:50;;;;;;;12.30;11.17;;;17.00;99.90;;;;;;4996279;28;20235;-68
2023/09/28 05:17:15;;;;;;;18.93;12.47;;;16.90;99.90;;;;;;4988649;28;20196;-65
2023/09/28 05:19:41;;;;;;;13.37;11.47;;;16.90;99.90;;;;;;4989031;28;20608;-61
2023/09/28 05:22:07;;;;;;;13.43;11.87;;;16.90;99.90;;;;;;4968810;28;20192;-63
2023/09/28 05:24:33;;;;;;;15.80;11.67;;;17.00;99.90;;;;;;4982688;28;20405;-69
2023/09/28 05:26:58;;;;;;;15.90;12.17;;;17.00;99.90;;;;;;4987285;28;20678;-64
2023/09/28 05:29:24;;;;;;;12.50;11.37;;;17.00;99.90;;;;;;4991860;28;20207;-64
2023/09/28 05:31:49;;;;;;;16.93;12.17;;;16.90;99.90;;;;;;4991296;28;20813;-64
2023/09/28 05:34:15;;;;;;;13.70;12.33;;;17.00;99.90;;;;;;4984313;28;20316;-64
2023/09/28 05:36:40;;;;;;;15.67;13.63;;;17.00;99.90;;;;;;4989174;28;20203;-63
2023/09/28 05:39:08;;;;;;;15.83;13.60;;;17.00;99.90;;;;;;4976840;28;20287;-64
2023/09/28 05:41:34;;;;;;;15.20;13.50;;;17.00;99.90;;;;;;4989661;28;20224;-66
2023/09/28 05:44:00;;;;;;;15.50;13.23;;;17.00;99.90;;;;;;4990002;28;20197;-61
2023/09/28 05:46:26;;;;;;;13.67;11.97;;;17.00;99.90;;;;;;4991065;28;20217;-67
2023/09/28 05:48:51;;;;;;;15.83;12.87;;;17.00;99.90;;;;;;4971649;28;20189;-66
2023/09/28 05:51:17;;;;;;;15.97;12.97;;;16.90;99.90;;;;;;4991980;28;20586;-64
2023/09/28 05:53:43;;;;;;;14.87;13.43;;;17.00;99.90;;;;;;4987537;28;20283;-62
2023/09/28 05:56:08;;;;;;;13.33;12.13;;;17.00;99.90;;;;;;4988070;28;20196;-62
2023/09/28 05:58:34;;;;;;;16.53;14.47;;;17.10;99.90;;;;;;4992017;28;20199;-62
2023/09/28 06:01:06;;;;;;;14.73;13.13;;;17.10;99.90;;;;;;4973405;28;20201;-62
2023/09/28 06:03:31;;;;;;;16.47;13.27;;;17.10;99.90;;;;;;4994766;28;20587;-61
2023/09/28 06:05:57;;;;;;;14.93;13.23;;;17.00;99.90;;;;;;4995842;28;20197;-62
2023/09/28 06:08:22;;;;;;;15.87;13.93;;;17.10;99.90;;;;;;4992276;28;20569;-62
2023/09/28 06:10:48;;;;;;;15.80;13.07;;;17.10;99.90;;;;;;4992696;28;20899;-62
2023/09/28 06:13:15;;;;;;;15.23;13.60;;;17.10;99.90;;;;;;4967857;28;20222;-62
2023/09/28 06:15:40;;;;;;;17.27;12.53;;;17.20;99.90;;;;;;4988334;28;20231;-62
2023/09/28 06:18:06;;;;;;;15.20;13.60;;;17.20;99.90;;;;;;4985650;28;20238;-62
2023/09/28 06:20:33;;;;;;;20.97;13.57;;;17.20;99.90;;;;;;4986794;28;21769;-63
2023/09/28 06:22:59;;;;;;;13.40;12.03;;;17.20;99.90;;;;;;4990797;28;20707;-63
2023/09/28 06:25:24;;;;;;;14.60;13.10;;;17.30;99.90;;;;;;4988605;28;20216;-63
2023/09/28 06:27:50;;;;;;;18.87;12.80;;;17.30;99.90;;;;;;4986863;28;20205;-63
2023/09/28 06:30:15;;;;;;;14.70;12.57;;;17.40;99.90;;;;;;4991526;28;20217;-64
2023/09/28 06:32:41;;;;;;;18.70;12.57;;;17.40;99.90;;;;;;4971231;28;20204;-67
2023/09/28 06:35:08;;;;;;;13.90;12.60;;;17.40;99.90;;;;;;4971462;28;20631;-62
2023/09/28 06:37:34;;;;;;;14.43;13.10;;;17.40;99.90;;;;;;4990651;28;20205;-62
2023/09/28 06:40:00;;;;;;;15.20;12.60;;;17.40;99.90;;;;;;4989904;28;20660;-63
2023/09/28 06:42:25;;;;;;;15.77;13.83;;;17.50;99.90;;;;;;4992770;28;20237;-67
2023/09/28 06:44:51;;;;;;;16.77;13.37;;;17.60;99.90;;;;;;4994783;28;20216;-62
2023/09/28 06:47:17;;;;;;;14.40;13.03;;;17.60;99.90;;;;;;4969285;28;20215;-67
2023/09/28 06:49:43;;;;;;;17.67;12.30;;;17.60;99.90;;;;;;4994806;28;20627;-65
2023/09/28 06:52:09;;;;;;;21.90;15.40;;;17.70;99.90;;;;;;4988555;28;20285;-64
2023/09/28 06:54:36;;;;;;;15.60;13.07;;;17.80;99.90;;;;;;4988572;28;20233;-63
2023/09/28 06:57:03;;;;;;;14.03;12.67;;;17.80;99.90;;;;;;4989178;28;20214;-64
2023/09/28 06:59:28;;;;;;;18.23;13.20;;;17.80;99.90;;;;;;4987917;28;20241;-63
2023/09/28 07:01:54;;;;;;;15.90;14.27;;;17.80;99.90;;;;;;4999764;28;20214;-62
2023/09/28 07:04:20;;;;;;;17.23;13.50;;;17.90;99.90;;;;;;4988014;28;20204;-62
2023/09/28 07:06:45;;;;;;;14.97;13.37;;;18.00;99.90;;;;;;4973557;28;20255;-61
2023/09/28 07:09:12;;;;;;;16.37;13.30;;;18.00;99.90;;;;;;4991696;28;20706;-65
2023/09/28 07:11:37;;;;;;;18.97;13.70;;;17.80;99.90;;;;;;4974681;28;20210;-65
2023/09/28 07:14:03;;;;;;;15.93;13.43;;;18.00;99.90;;;;;;4992954;28;20215;-61
2023/09/28 07:16:28;;;;;;;14.50;12.90;;;18.10;99.90;;;;;;4993543;28;20697;-64
2023/09/28 07:18:54;;;;;;;16.73;13.57;;;18.20;99.90;;;;;;4990659;28;20725;-62
2023/09/28 07:21:20;;;;;;;15.57;13.20;;;18.30;99.90;;;;;;4989450;28;20210;-63
2023/09/28 07:23:45;;;;;;;16.07;13.43;;;18.30;99.90;;;;;;4994610;28;20200;-73
2023/09/28 07:26:16;;;;;;;14.80;13.40;;;18.30;99.90;;;;;;4995170;28;20206;-63
2023/09/28 07:28:42;;;;;;;16.93;13.97;;;18.30;99.90;;;;;;4993653;28;20206;-64
2023/09/28 07:31:08;;;;;;;15.30;13.30;;;18.40;99.90;;;;;;4993837;28;20197;-63
2023/09/28 07:33:35;;;;;;;17.73;14.30;;;18.50;99.90;;;;;;4990191;28;20259;-65
2023/09/28 07:36:00;;;;;;;16.17;13.70;;;18.50;99.90;;;;;;4994702;28;21012;-63
2023/09/28 07:38:26;;;;;;;17.43;13.60;;;18.50;99.90;;;;;;4975069;28;20726;-62
2023/09/28 07:40:51;;;;;;;14.00;12.57;;;18.60;99.90;;;;;;4989844;28;20229;-63
2023/09/28 07:43:17;;;;;;;13.70;11.67;;;18.70;99.90;;;;;;4992161;28;20213;-62
2023/09/28 07:45:42;;;;;;;15.17;12.57;;;18.80;99.90;;;;;;4981736;28;20193;-63
2023/09/28 07:48:08;;;;;;;16.40;12.43;;;18.80;99.90;;;;;;4987492;28;20211;-65
2023/09/28 07:50:33;;;;;;;14.63;12.33;;;18.80;99.90;;;;;;4989447;28;20235;-65
2023/09/28 07:52:59;;;;;;;15.13;13.63;;;18.90;99.90;;;;;;4981779;28;20543;-68
2023/09/28 07:55:24;;;;;;;18.73;12.50;;;19.00;99.90;;;;;;4989981;28;20250;-63
2023/09/28 07:57:50;;;;;;;13.07;11.87;;;19.00;99.90;;;;;;4984303;28;20200;-65
2023/09/28 08:00:17;;;;;;;19.13;13.17;;;19.00;99.90;;;;;;4967222;28;20262;-67
2023/09/28 08:02:43;;;;;;;18.43;12.23;;;19.10;99.90;;;;;;4986350;28;21132;-65
2023/09/28 08:05:08;;;;;;;16.17;11.90;;;19.30;99.90;;;;;;4982529;28;20200;-65
2023/09/28 08:07:34;;;;;;;16.87;12.83;;;19.30;99.90;;;;;;4973754;28;20565;-64
2023/09/28 08:10:03;;;;;;;14.27;11.87;;;19.50;99.90;;;;;;4989169;28;20321;-63
2023/09/28 08:12:28;;;;;;;13.93;12.43;;;19.50;99.90;;;;;;4989348;28;20215;-63
2023/09/28 08:14:54;;;;;;;13.27;11.97;;;19.60;99.90;;;;;;4993607;28;20791;-63
2023/09/28 08:17:20;;;;;;;13.50;12.20;;;19.70;99.90;;;;;;4997232;28;20591;-63
2023/09/28 08:19:46;;;;;;;13.93;11.43;;;19.70;99.90;;;;;;4984256;28;20207;-63
2023/09/28 08:22:11;;;;;;;13.00;11.77;;;19.80;99.90;;;;;;4971966;28;20199;-63
2023/09/28 08:24:37;;;;;;;14.47;11.90;;;19.90;99.90;;;;;;4967486;28;20192;-64
2023/09/28 08:27:04;;;;;;;13.00;11.27;;;19.90;99.90;;;;;;4987918;28;20206;-63
2023/09/28 08:29:30;;;;;;;17.07;11.30;;;20.00;99.90;;;;;;4988759;28;20204;-63
2023/09/28 08:31:56;;;;;;;13.47;11.57;;;20.10;99.90;;;;;;4985695;28;20261;-66
2023/09/28 08:34:21;;;;;;;15.93;12.83;;;20.10;99.90;;;;;;4969210;28;20223;-64
2023/09/28 08:36:47;;;;;;;11.77;10.50;;;20.10;99.90;;;;;;4973043;28;20211;-63
2023/09/28 08:39:13;;;;;;;17.80;12.23;;;20.30;99.90;;;;;;4992866;28;20282;-63
2023/09/28 08:41:47;;;;;;;18.10;11.23;;;20.50;99.90;;;;;;4986678;28;20230;-62
2023/09/28 08:44:13;;;;;;;12.67;10.77;;;20.60;99.90;;;;;;4990494;28;20541;-61
2023/09/28 08:46:40;;;;;;;11.93;10.70;;;20.70;99.90;;;;;;4986754;28;20204;-62
2023/09/28 08:49:07;;;;;;;12.13;11.03;;;20.70;99.90;;;;;;4965794;28;20192;-71
2023/09/28 08:51:38;;;;;;;14.83;10.77;;;20.80;99.90;;;;;;4987857;28;20783;-66
2023/09/28 08:54:05;;;;;;;12.40;11.00;;;20.90;99.90;;;;;;4983628;28;20228;-61
2023/09/28 08:56:39;;;;;;;14.87;9.60;;;21.00;99.90;;;;;;4985988;28;20836;-62
2023/09/28 08:59:05;;;;;;;14.53;9.07;;;21.00;99.90;;;;;;4992212;28;20207;-69
2023/09/28 09:01:32;;;;;;;13.87;10.00;;;21.10;99.90;;;;;;4995873;28;20204;-61
2023/09/28 09:03:58;;;;;;;13.13;9.47;;;21.20;99.90;;;;;;4996758;28;20601;-62
2023/09/28 09:06:24;;;;;;;10.17;9.10;;;21.30;99.90;;;;;;5002185;28;20234;-69
2023/09/28 09:08:50;;;;;;;9.60;8.70;;;21.30;99.90;;;;;;4994708;28;20227;-68
2023/09/28 09:11:16;;;;;;;10.37;9.03;;;21.30;99.90;;;;;;4992153;28;20689;-68
2023/09/28 09:13:54;;;;;;;11.03;9.17;;;21.40;99.90;;;;;;4997607;28;20207;-68
2023/09/28 09:16:22;;;;;;;10.70;9.60;;;21.60;99.90;;;;;;4996457;28;20931;-63
2023/09/28 09:18:48;;;;;;;11.20;8.77;;;21.70;99.90;;;;;;4993489;28;20612;-65
2023/09/28 09:21:14;;;;;;;9.37;8.43;;;21.80;99.90;;;;;;4995274;28;20290;-63
2023/09/28 09:23:39;;;;;;;14.27;9.30;;;21.80;99.90;;;;;;4995865;28;20204;-65
2023/09/28 09:26:17;;;;;;;9.37;8.13;;;21.70;99.90;;;;;;4995067;28;20678;-62
2023/09/28 09:28:46;;;;;;;8.97;8.07;;;21.80;99.90;;;;;;4998489;28;20257;-62
2023/09/28 09:31:12;;;;;;;8.63;7.73;;;21.90;99.90;;;;;;4976266;28;20200;-62
2023/09/28 09:33:38;;;;;;;9.63;8.63;;;21.90;99.90;;;;;;4981407;28;20200;-62
2023/09/28 09:36:05;;;;;;;9.30;7.50;;;21.90;99.90;;;;;;4985293;28;20609;-63
2023/09/28 09:38:31;;;;;;;9.27;7.77;;;22.00;99.90;;;;;;4976062;28;20200;-63
2023/09/28 09:41:04;;;;;;;9.03;7.53;;;22.20;99.90;;;;;;4992252;28;20281;-67
2023/09/28 09:43:34;;;;;;;10.93;8.10;;;22.30;99.90;;;;;;4972473;28;20716;-62
2023/09/28 09:46:05;;;;;;;9.03;8.23;;;22.30;99.90;;;;;;4987271;28;20188;-66
2023/09/28 09:48:43;;;;;;;9.83;8.93;;;22.30;99.90;;;;;;4987091;28;20200;-67
2023/09/28 09:51:10;;;;;;;9.13;8.00;;;22.50;99.90;;;;;;4970016;28;20662;-65
2023/09/28 09:53:40;;;;;;;8.47;7.77;;;22.50;99.90;;;;;;4990570;28;20191;-67
2023/09/28 09:56:06;;;;;;;10.50;8.93;;;22.60;99.90;;;;;;4984880;28;20216;-65
2023/09/28 09:58:42;;;;;;;8.90;7.97;;;22.60;99.90;;;;;;4993542;28;20207;-66
2023/09/28 10:01:13;;;;;;;9.80;7.60;;;22.60;99.90;;;;;;4968321;28;20204;-69
2023/09/28 10:03:42;;;;;;;9.67;8.27;;;22.60;99.90;;;;;;4987091;28;20362;-62
2023/09/28 10:06:09;;;;;;;13.17;9.07;;;22.70;99.90;;;;;;4973845;28;20258;-68
2023/09/28 10:08:35;;;;;;;9.83;7.93;;;22.70;99.90;;;;;;4988523;28;20254;-62
2023/09/28 10:11:04;;;;;;;7.60;6.90;;;22.90;99.90;;;;;;4992751;28;20610;-62
2023/09/28 10:13:31;;;;;;;9.40;8.57;;;22.90;99.90;;;;;;4975149;28;20734;-69
2023/09/28 10:16:00;;;;;;;8.83;8.03;;;22.90;99.90;;;;;;4993001;28;20268;-63
2023/09/28 10:18:26;;;;;;;11.30;7.80;;;23.00;99.90;;;;;;4974804;28;20680;-62
2023/09/28 10:20:52;;;;;;;9.57;7.50;;;23.00;99.90;;;;;;4972693;28;20201;-62
2023/09/28 10:23:23;;;;;;;7.57;6.87;;;23.20;99.90;;;;;;4993105;28;20591;-63
2023/09/28 10:26:03;;;;;;;10.10;6.95;;;23.30;99.90;;;;;;4980572;28;20281;-63
2023/09/28 10:28:29;;;;;;;8.43;6.70;;;23.40;99.90;;;;;;4992062;28;20218;-62
2023/09/28 10:31:10;;;;;;;9.30;6.78;;;23.40;99.90;;;;;;4998526;28;20619;-62
2023/09/28 10:33:55;;;;;;;9.10;6.32;;;23.50;99.90;;;;;;4999236;28;20201;-63
2023/09/28 10:36:21;;;;;;;8.80;6.40;;;23.70;99.90;;;;;;4992238;28;20211;-62
2023/09/28 10:39:04;;;;;;;7.05;5.78;;;23.60;99.90;;;;;;4984122;28;20204;-63
2023/09/28 10:41:30;;;;;;;7.35;6.63;;;23.70;99.90;;;;;;4980229;28;20263;-63
2023/09/28 10:43:56;;;;;;;7.15;6.50;;;23.90;99.90;;;;;;4971342;28;21094;-63
2023/09/28 10:46:23;;;;;;;8.07;6.78;;;24.10;99.90;;;;;;4989251;28;20592;-62
2023/09/28 10:48:51;;;;;;;8.50;6.63;;;24.00;99.90;;;;;;4989697;28;20302;-63
2023/09/28 10:51:18;;;;;;;7.40;6.50;;;24.00;99.90;;;;;;4971073;28;20209;-62
2023/09/28 10:53:44;;;;;;;6.80;6.15;;;24.10;99.90;;;;;;4989488;28;20262;-62
2023/09/28 10:56:11;;;;;;;8.15;7.35;;;24.60;99.90;;;;;;4985507;28;20318;-62
2023/09/28 10:58:38;;;;;;;7.15;6.45;;;24.80;99.90;;;;;;4994675;28;20611;-62
2023/09/28 11:01:04;;;;;;;7.88;6.93;;;25.00;99.90;;;;;;4993882;28;20203;-61
2023/09/28 11:03:34;;;;;;;6.28;4.93;;;25.30;99.90;;;;;;4996446;28;20203;-62
2023/09/28 11:06:09;;;;;;;10.63;5.80;;;25.50;99.90;;;;;;4977360;28;20336;-62
2023/09/28 11:08:36;;;;;;;6.30;5.60;;;25.40;99.90;;;;;;4995025;28;20238;-62
2023/09/28 11:11:03;;;;;;;5.63;5.18;;;25.60;99.90;;;;;;4997040;28;20200;-63
2023/09/28 11:13:29;;;;;;;7.60;5.40;;;25.30;99.90;;;;;;4989993;28;20619;-63
2023/09/28 11:15:55;;;;;;;5.13;4.60;;;25.30;99.90;;;;;;4988156;28;20830;-62
2023/09/28 11:18:23;;;;;;;4.88;4.45;;;25.60;98.90;;;;;;4990692;28;20199;-63
2023/09/28 11:20:48;;;;;;;5.53;5.07;;;26.20;98.90;;;;;;4997722;28;20816;-62
2023/09/28 11:23:14;;;;;;;4.30;3.90;;;26.60;96.60;;;;;;4991928;28;20593;-63
2023/09/28 11:25:40;;;;;;;5.65;5.00;;;26.60;98.40;;;;;;4986708;28;20208;-63
2023/09/28 11:28:06;;;;;;;9.05;4.93;;;26.60;96.70;;;;;;4994690;28;20191;-62
2023/09/28 11:30:32;;;;;;;6.53;4.22;;;26.60;96.20;;;;;;4994076;28;20225;-62
2023/09/28 11:32:57;;;;;;;5.30;4.55;;;26.50;95.50;;;;;;4992969;28;20667;-62
2023/09/28 11:35:26;;;;;;;5.38;4.95;;;26.70;95.60;;;;;;4992862;28;20915;-65
2023/09/28 11:37:57;;;;;;;4.80;4.40;;;26.50;96.20;;;;;;5000257;28;20783;-62
2023/09/28 11:40:24;;;;;;;5.07;4.68;;;26.40;96.70;;;;;;4991845;28;20200;-62
2023/09/28 11:42:52;;;;;;;6.40;4.93;;;26.20;96.60;;;;;;4991432;28;20256;-61
2023/09/28 11:45:18;;;;;;;10.88;5.05;;;26.20;96.10;;;;;;4987069;28;20303;-63
2023/09/28 11:47:47;;;;;;;6.00;4.95;;;26.30;97.80;;;;;;4990280;28;20207;-62
2023/09/28 11:50:13;;;;;;;8.80;5.35;;;26.60;96.30;;;;;;4989256;28;20200;-63
2023/09/28 11:52:40;;;;;;;5.63;3.95;;;27.50;93.90;;;;;;4986132;28;20205;-63
2023/09/28 11:55:06;;;;;;;16.83;4.68;;;27.70;92.20;;;;;;4984486;28;20275;-67
2023/09/28 11:57:38;;;;;;;5.95;5.15;;;27.90;91.90;;;;;;4992993;28;20196;-67
2023/09/28 12:00:06;;;;;;;5.88;5.40;;;28.20;90.70;;;;;;4986671;28;20204;-66
2023/09/28 12:02:32;;;;;;;8.00;4.40;;;27.60;92.60;;;;;;4989068;28;20211;-66
2023/09/28 12:04:58;;;;;;;7.93;5.15;;;27.30;91.60;;;;;;4987335;28;21024;-62
2023/09/28 12:07:24;;;;;;;5.45;4.95;;;26.90;91.10;;;;;;4990822;28;20204;-65
2023/09/28 12:09:49;;;;;;;5.93;4.22;;;26.60;93.40;;;;;;4996732;28;20199;-67
2023/09/28 12:12:15;;;;;;;8.43;4.60;;;26.20;94.00;;;;;;4997270;28;20196;-66
2023/09/28 12:14:40;;;;;;;5.47;4.72;;;26.30;93.20;;;;;;4993616;28;20265;-67
2023/09/28 12:17:06;;;;;;;6.47;4.97;;;26.20;94.10;;;;;;4993825;28;20774;-65
2023/09/28 12:19:31;;;;;;;5.47;4.95;;;25.90;95.80;;;;;;4971829;28;20531;-64
2023/09/28 12:21:58;;;;;;;6.05;4.43;;;25.70;96.10;;;;;;4987920;28;21080;-64
2023/09/28 12:24:26;;;;;;;4.45;4.10;;;25.70;94.00;;;;;;4976400;28;20206;-62
2023/09/28 12:26:52;;;;;;;5.28;4.72;;;26.00;92.80;;;;;;4970349;28;20206;-65
2023/09/28 12:29:18;;;;;;;5.95;5.45;;;26.00;94.70;;;;;;4990081;28;20597;-64
2023/09/28 12:31:44;;;;;;;5.65;5.15;;;26.20;93.50;;;;;;4967376;28;20202;-62
2023/09/28 12:34:10;;;;;;;5.10;4.40;;;26.40;93.30;;;;;;4985250;28;20246;-62
2023/09/28 12:36:37;;;;;;;5.53;4.88;;;26.40;95.90;;;;;;4966557;28;20475;-62